Pagina principale
METAR-TAF:

METAR-TAF

Aeroporti :

Lanseria, Sudafrica

latitudine: 25-56S, longitudine: 027-56E, altezza: 1377 m

Osservazione

Il bollettino è stato emesso 51 minuti fa, alle 17:00 UTC
Vento 3 kt da sud-ovest
Temperature 17°C
Umidità 39%
Pressione 1030 hPa
Visibilità 10 km o più
nessuna nube inferiore a 1500 m e nessun cumulonembo

METAR: FALA 311700Z 22003KT CAVOK 17/03 Q1030 NOSIG

Ora: 19:51 (17:51 UTC)

Previsione

Il bollettino è stato emesso 1 ora e 51 minuti fa, alle 16:00 UTC
Previsione valida dal 31 alle 18 UTC al 01 alle 18 UTC
Vento 3 kt da direzioni variabili
Visibilità 10 km o più
nessuna nube inferiore a 1500 m e nessun cumulonembo

TAF: FALA 311600Z 3118/0118 VRB03KT CAVOK TX23/0112Z TN06/0104Z

Osservazioni e previsioni meteorologiche di più di 4000 aeroporti (messaggi METAR e TAF).

Le stazioni disponibili sono rappresentate dai dischi gialli e rossi sulla carta.

Puntare il mouse per vedere il nome della stazione.

Clicca sopra per visualizzare le osservazioni e previsioni meteorologiche.

Per cambiare la mappa : fare clic sui pulsanti verdi con una croce nera per ingrandire, il pulsante verde con un trattino per diminuire, o sulla freccia verde per le mappe adiacenti.


METAR-TAF: